sensor_id;sensor_type;location;lat;lon;timestamp;P1;durP1;ratioP1;P2;durP2;ratioP2
23206;SDS011;11773;52.570;13.052;2024-01-30T00:00:16;1.40;;;1.30;;
23206;SDS011;11773;52.570;13.052;2024-01-30T00:02:46;1.40;;;1.30;;
23206;SDS011;11773;52.570;13.052;2024-01-30T00:05:15;1.83;;;1.50;;
23206;SDS011;11773;52.570;13.052;2024-01-30T00:07:45;1.43;;;1.33;;
23206;SDS011;11773;52.570;13.052;2024-01-30T00:10:14;1.90;;;1.40;;
23206;SDS011;11773;52.570;13.052;2024-01-30T00:12:44;1.60;;;1.50;;
23206;SDS011;11773;52.570;13.052;2024-01-30T00:15:14;1.50;;;1.40;;
23206;SDS011;11773;52.570;13.052;2024-01-30T00:17:43;1.33;;;1.23;;
23206;SDS011;11773;52.570;13.052;2024-01-30T00:20:13;1.67;;;1.57;;
23206;SDS011;11773;52.570;13.052;2024-01-30T00:22:43;1.60;;;1.50;;
23206;SDS011;11773;52.570;13.052;2024-01-30T00:25:13;1.70;;;1.60;;
23206;SDS011;11773;52.570;13.052;2024-01-30T00:27:42;2.00;;;1.80;;
23206;SDS011;11773;52.570;13.052;2024-01-30T00:30:12;1.80;;;1.70;;
23206;SDS011;11773;52.570;13.052;2024-01-30T00:32:42;1.63;;;1.50;;
23206;SDS011;11773;52.570;13.052;2024-01-30T00:35:12;1.70;;;1.60;;
23206;SDS011;11773;52.570;13.052;2024-01-30T00:37:42;1.67;;;1.50;;
23206;SDS011;11773;52.570;13.052;2024-01-30T00:40:11;1.63;;;1.50;;
23206;SDS011;11773;52.570;13.052;2024-01-30T00:42:43;1.67;;;1.57;;
23206;SDS011;11773;52.570;13.052;2024-01-30T00:45:16;2.03;;;1.70;;
23206;SDS011;11773;52.570;13.052;2024-01-30T00:47:45;1.50;;;1.40;;
23206;SDS011;11773;52.570;13.052;2024-01-30T00:50:15;2.60;;;2.30;;
23206;SDS011;11773;52.570;13.052;2024-01-30T00:52:45;3.23;;;2.00;;
23206;SDS011;11773;52.570;13.052;2024-01-30T00:55:14;2.20;;;2.00;;
23206;SDS011;11773;52.570;13.052;2024-01-30T00:57:44;2.10;;;1.90;;
23206;SDS011;11773;52.570;13.052;2024-01-30T01:00:14;1.97;;;1.77;;
23206;SDS011;11773;52.570;13.052;2024-01-30T01:02:44;2.40;;;1.90;;
23206;SDS011;11773;52.570;13.052;2024-01-30T01:05:14;1.93;;;1.60;;
23206;SDS011;11773;52.570;13.052;2024-01-30T01:07:44;1.70;;;1.60;;
23206;SDS011;11773;52.570;13.052;2024-01-30T01:10:18;1.90;;;1.70;;
23206;SDS011;11773;52.570;13.052;2024-01-30T01:12:48;2.20;;;1.97;;
23206;SDS011;11773;52.570;13.052;2024-01-30T01:15:19;2.00;;;1.80;;
23206;SDS011;11773;52.570;13.052;2024-01-30T01:17:49;1.50;;;1.40;;
23206;SDS011;11773;52.570;13.052;2024-01-30T01:20:18;1.50;;;1.40;;
23206;SDS011;11773;52.570;13.052;2024-01-30T01:22:48;1.90;;;1.50;;
23206;SDS011;11773;52.570;13.052;2024-01-30T01:25:19;1.53;;;1.33;;
23206;SDS011;11773;52.570;13.052;2024-01-30T01:27:49;1.43;;;1.17;;
23206;SDS011;11773;52.570;13.052;2024-01-30T01:30:19;1.50;;;1.40;;
23206;SDS011;11773;52.570;13.052;2024-01-30T01:32:49;1.70;;;1.47;;
23206;SDS011;11773;52.570;13.052;2024-01-30T01:35:21;1.50;;;1.27;;
23206;SDS011;11773;52.570;13.052;2024-01-30T01:37:54;1.20;;;1.10;;
23206;SDS011;11773;52.570;13.052;2024-01-30T01:40:26;1.20;;;1.10;;
23206;SDS011;11773;52.570;13.052;2024-01-30T01:42:56;1.20;;;1.10;;
23206;SDS011;11773;52.570;13.052;2024-01-30T01:45:25;0.90;;;0.90;;
23206;SDS011;11773;52.570;13.052;2024-01-30T01:47:55;1.50;;;1.40;;
23206;SDS011;11773;52.570;13.052;2024-01-30T01:50:25;1.10;;;1.00;;
23206;SDS011;11773;52.570;13.052;2024-01-30T01:52:55;1.43;;;1.30;;
23206;SDS011;11773;52.570;13.052;2024-01-30T01:55:25;1.43;;;1.20;;
23206;SDS011;11773;52.570;13.052;2024-01-30T01:57:57;1.00;;;0.90;;
23206;SDS011;11773;52.570;13.052;2024-01-30T02:00:28;1.60;;;1.50;;
23206;SDS011;11773;52.570;13.052;2024-01-30T02:02:58;1.47;;;1.30;;
23206;SDS011;11773;52.570;13.052;2024-01-30T02:13:05;1.03;;;0.93;;
23206;SDS011;11773;52.570;13.052;2024-01-30T02:15:35;1.93;;;1.27;;
23206;SDS011;11773;52.570;13.052;2024-01-30T02:18:04;1.13;;;1.07;;
23206;SDS011;11773;52.570;13.052;2024-01-30T02:20:34;0.90;;;0.90;;
23206;SDS011;11773;52.570;13.052;2024-01-30T02:23:06;1.20;;;1.10;;
23206;SDS011;11773;52.570;13.052;2024-01-30T02:25:38;1.00;;;1.00;;
23206;SDS011;11773;52.570;13.052;2024-01-30T02:28:12;0.97;;;0.97;;
23206;SDS011;11773;52.570;13.052;2024-01-30T02:30:42;1.30;;;1.20;;
23206;SDS011;11773;52.570;13.052;2024-01-30T02:33:13;1.40;;;1.30;;
23206;SDS011;11773;52.570;13.052;2024-01-30T02:35:42;1.10;;;1.10;;
23206;SDS011;11773;52.570;13.052;2024-01-30T02:38:12;1.20;;;1.10;;
23206;SDS011;11773;52.570;13.052;2024-01-30T02:40:43;1.60;;;1.37;;
23206;SDS011;11773;52.570;13.052;2024-01-30T02:43:13;1.40;;;1.30;;
23206;SDS011;11773;52.570;13.052;2024-01-30T02:45:42;1.57;;;1.40;;
23206;SDS011;11773;52.570;13.052;2024-01-30T02:48:12;1.23;;;1.13;;
23206;SDS011;11773;52.570;13.052;2024-01-30T02:50:42;1.40;;;1.30;;
23206;SDS011;11773;52.570;13.052;2024-01-30T02:53:12;0.87;;;0.87;;
23206;SDS011;11773;52.570;13.052;2024-01-30T02:55:42;1.20;;;0.90;;
23206;SDS011;11773;52.570;13.052;2024-01-30T02:58:11;1.13;;;1.00;;
23206;SDS011;11773;52.570;13.052;2024-01-30T03:00:41;1.23;;;1.20;;
23206;SDS011;11773;52.570;13.052;2024-01-30T03:03:11;1.30;;;1.20;;
23206;SDS011;11773;52.570;13.052;2024-01-30T03:05:41;1.17;;;1.00;;
23206;SDS011;11773;52.570;13.052;2024-01-30T03:08:10;1.30;;;1.20;;
23206;SDS011;11773;52.570;13.052;2024-01-30T03:10:40;0.93;;;0.93;;
23206;SDS011;11773;52.570;13.052;2024-01-30T03:13:09;1.00;;;1.00;;
23206;SDS011;11773;52.570;13.052;2024-01-30T03:15:39;1.17;;;1.00;;
23206;SDS011;11773;52.570;13.052;2024-01-30T03:18:08;1.00;;;1.00;;
23206;SDS011;11773;52.570;13.052;2024-01-30T03:20:38;1.20;;;1.10;;
23206;SDS011;11773;52.570;13.052;2024-01-30T03:23:08;1.10;;;1.10;;
23206;SDS011;11773;52.570;13.052;2024-01-30T03:25:37;1.40;;;1.30;;
23206;SDS011;11773;52.570;13.052;2024-01-30T03:28:07;1.23;;;1.13;;
23206;SDS011;11773;52.570;13.052;2024-01-30T03:30:36;1.00;;;0.90;;
23206;SDS011;11773;52.570;13.052;2024-01-30T03:33:06;1.27;;;1.17;;
23206;SDS011;11773;52.570;13.052;2024-01-30T03:35:36;1.23;;;1.13;;
23206;SDS011;11773;52.570;13.052;2024-01-30T03:38:06;0.77;;;0.77;;
23206;SDS011;11773;52.570;13.052;2024-01-30T03:40:35;1.13;;;1.03;;
23206;SDS011;11773;52.570;13.052;2024-01-30T03:43:05;0.90;;;0.90;;
23206;SDS011;11773;52.570;13.052;2024-01-30T03:45:34;1.40;;;1.30;;
23206;SDS011;11773;52.570;13.052;2024-01-30T03:48:04;1.37;;;1.27;;
23206;SDS011;11773;52.570;13.052;2024-01-30T03:50:34;1.30;;;1.20;;
23206;SDS011;11773;52.570;13.052;2024-01-30T03:53:04;1.33;;;1.03;;
23206;SDS011;11773;52.570;13.052;2024-01-30T03:55:33;1.70;;;1.47;;
23206;SDS011;11773;52.570;13.052;2024-01-30T03:58:03;1.60;;;1.27;;
23206;SDS011;11773;52.570;13.052;2024-01-30T04:00:33;1.90;;;1.40;;
23206;SDS011;11773;52.570;13.052;2024-01-30T04:03:02;1.10;;;1.00;;
23206;SDS011;11773;52.570;13.052;2024-01-30T04:05:33;1.07;;;1.03;;
23206;SDS011;11773;52.570;13.052;2024-01-30T04:08:03;1.30;;;1.20;;
23206;SDS011;11773;52.570;13.052;2024-01-30T04:10:33;1.20;;;1.10;;
23206;SDS011;11773;52.570;13.052;2024-01-30T04:13:03;1.50;;;1.40;;
23206;SDS011;11773;52.570;13.052;2024-01-30T04:15:34;1.40;;;1.30;;
23206;SDS011;11773;52.570;13.052;2024-01-30T04:18:04;1.20;;;1.10;;
23206;SDS011;11773;52.570;13.052;2024-01-30T04:20:34;1.27;;;1.17;;
23206;SDS011;11773;52.570;13.052;2024-01-30T04:23:03;1.30;;;1.20;;
23206;SDS011;11773;52.570;13.052;2024-01-30T04:25:33;2.03;;;1.23;;
23206;SDS011;11773;52.570;13.052;2024-01-30T04:28:05;1.17;;;1.07;;
23206;SDS011;11773;52.570;13.052;2024-01-30T04:30:34;1.40;;;1.30;;
23206;SDS011;11773;52.570;13.052;2024-01-30T04:33:04;2.30;;;1.80;;
23206;SDS011;11773;52.570;13.052;2024-01-30T04:35:35;2.00;;;1.80;;
23206;SDS011;11773;52.570;13.052;2024-01-30T04:38:05;1.70;;;1.60;;
23206;SDS011;11773;52.570;13.052;2024-01-30T04:40:34;2.00;;;1.67;;
23206;SDS011;11773;52.570;13.052;2024-01-30T04:43:04;1.80;;;1.70;;
23206;SDS011;11773;52.570;13.052;2024-01-30T04:45:33;1.60;;;1.50;;
23206;SDS011;11773;52.570;13.052;2024-01-30T04:48:04;1.80;;;1.70;;
23206;SDS011;11773;52.570;13.052;2024-01-30T04:50:34;1.60;;;1.50;;
23206;SDS011;11773;52.570;13.052;2024-01-30T04:53:03;1.53;;;1.43;;
23206;SDS011;11773;52.570;13.052;2024-01-30T04:55:33;1.40;;;1.30;;
23206;SDS011;11773;52.570;13.052;2024-01-30T04:58:03;1.30;;;1.20;;
23206;SDS011;11773;52.570;13.052;2024-01-30T05:00:33;1.20;;;1.03;;
23206;SDS011;11773;52.570;13.052;2024-01-30T05:03:03;1.37;;;1.13;;
23206;SDS011;11773;52.570;13.052;2024-01-30T05:05:32;1.30;;;1.20;;
23206;SDS011;11773;52.570;13.052;2024-01-30T05:08:02;1.10;;;1.10;;
23206;SDS011;11773;52.570;13.052;2024-01-30T05:10:32;1.00;;;1.00;;
23206;SDS011;11773;52.570;13.052;2024-01-30T05:13:02;1.37;;;1.27;;
23206;SDS011;11773;52.570;13.052;2024-01-30T05:15:31;1.07;;;1.07;;
23206;SDS011;11773;52.570;13.052;2024-01-30T05:18:01;1.30;;;1.20;;
23206;SDS011;11773;52.570;13.052;2024-01-30T05:20:31;1.10;;;1.00;;
23206;SDS011;11773;52.570;13.052;2024-01-30T05:23:00;1.80;;;1.53;;
23206;SDS011;11773;52.570;13.052;2024-01-30T05:25:30;2.00;;;1.80;;
23206;SDS011;11773;52.570;13.052;2024-01-30T05:28:00;1.93;;;1.73;;
23206;SDS011;11773;52.570;13.052;2024-01-30T05:30:30;1.63;;;1.53;;
23206;SDS011;11773;52.570;13.052;2024-01-30T05:33:02;1.60;;;1.30;;
23206;SDS011;11773;52.570;13.052;2024-01-30T05:35:31;1.33;;;1.23;;
23206;SDS011;11773;52.570;13.052;2024-01-30T05:38:01;1.63;;;1.50;;
23206;SDS011;11773;52.570;13.052;2024-01-30T05:40:31;1.30;;;1.20;;
23206;SDS011;11773;52.570;13.052;2024-01-30T05:43:00;1.57;;;1.40;;
23206;SDS011;11773;52.570;13.052;2024-01-30T05:45:30;1.70;;;1.60;;
23206;SDS011;11773;52.570;13.052;2024-01-30T05:48:00;1.20;;;1.10;;
23206;SDS011;11773;52.570;13.052;2024-01-30T05:50:30;1.10;;;1.10;;
23206;SDS011;11773;52.570;13.052;2024-01-30T05:53:00;1.90;;;1.20;;
23206;SDS011;11773;52.570;13.052;2024-01-30T05:55:29;1.30;;;1.20;;
23206;SDS011;11773;52.570;13.052;2024-01-30T05:57:59;1.07;;;1.03;;
23206;SDS011;11773;52.570;13.052;2024-01-30T06:00:28;1.20;;;1.10;;
23206;SDS011;11773;52.570;13.052;2024-01-30T06:02:58;1.50;;;1.27;;
23206;SDS011;11773;52.570;13.052;2024-01-30T06:05:28;1.70;;;1.30;;
23206;SDS011;11773;52.570;13.052;2024-01-30T06:07:57;1.57;;;1.40;;
23206;SDS011;11773;52.570;13.052;2024-01-30T06:10:27;1.33;;;1.17;;
23206;SDS011;11773;52.570;13.052;2024-01-30T06:12:57;1.57;;;1.30;;
23206;SDS011;11773;52.570;13.052;2024-01-30T06:15:26;1.40;;;1.30;;
23206;SDS011;11773;52.570;13.052;2024-01-30T06:17:58;1.40;;;1.20;;
23206;SDS011;11773;52.570;13.052;2024-01-30T06:20:27;1.27;;;1.17;;
23206;SDS011;11773;52.570;13.052;2024-01-30T06:22:57;1.10;;;1.00;;
23206;SDS011;11773;52.570;13.052;2024-01-30T06:25:27;1.30;;;1.20;;
23206;SDS011;11773;52.570;13.052;2024-01-30T06:27:56;1.70;;;1.60;;
23206;SDS011;11773;52.570;13.052;2024-01-30T06:30:26;1.10;;;1.00;;
23206;SDS011;11773;52.570;13.052;2024-01-30T06:32:55;0.93;;;0.90;;
23206;SDS011;11773;52.570;13.052;2024-01-30T06:35:25;1.50;;;1.23;;
23206;SDS011;11773;52.570;13.052;2024-01-30T06:37:56;1.33;;;1.23;;
23206;SDS011;11773;52.570;13.052;2024-01-30T06:40:25;1.37;;;1.27;;
23206;SDS011;11773;52.570;13.052;2024-01-30T06:42:55;2.10;;;1.90;;
23206;SDS011;11773;52.570;13.052;2024-01-30T06:45:25;2.30;;;2.10;;
23206;SDS011;11773;52.570;13.052;2024-01-30T06:47:54;2.50;;;2.30;;
23206;SDS011;11773;52.570;13.052;2024-01-30T06:50:24;1.97;;;1.77;;
23206;SDS011;11773;52.570;13.052;2024-01-30T06:52:54;2.00;;;1.80;;
23206;SDS011;11773;52.570;13.052;2024-01-30T06:55:24;1.47;;;1.37;;
23206;SDS011;11773;52.570;13.052;2024-01-30T06:57:54;2.00;;;1.80;;
23206;SDS011;11773;52.570;13.052;2024-01-30T07:00:24;2.70;;;1.90;;
23206;SDS011;11773;52.570;13.052;2024-01-30T07:02:53;2.53;;;2.23;;
23206;SDS011;11773;52.570;13.052;2024-01-30T07:05:23;2.30;;;2.10;;
23206;SDS011;11773;52.570;13.052;2024-01-30T07:07:53;3.60;;;2.87;;
23206;SDS011;11773;52.570;13.052;2024-01-30T07:10:22;2.77;;;2.50;;
23206;SDS011;11773;52.570;13.052;2024-01-30T07:12:52;2.10;;;1.90;;
23206;SDS011;11773;52.570;13.052;2024-01-30T07:15:22;2.30;;;2.10;;
23206;SDS011;11773;52.570;13.052;2024-01-30T07:17:51;2.10;;;1.90;;
23206;SDS011;11773;52.570;13.052;2024-01-30T07:20:21;1.50;;;1.40;;
23206;SDS011;11773;52.570;13.052;2024-01-30T07:22:51;1.47;;;1.30;;
23206;SDS011;11773;52.570;13.052;2024-01-30T07:25:21;1.23;;;1.13;;
23206;SDS011;11773;52.570;13.052;2024-01-30T07:27:52;1.60;;;1.50;;
23206;SDS011;11773;52.570;13.052;2024-01-30T07:30:22;1.30;;;1.17;;
23206;SDS011;11773;52.570;13.052;2024-01-30T07:32:52;1.60;;;1.50;;
23206;SDS011;11773;52.570;13.052;2024-01-30T07:35:21;1.30;;;1.20;;
23206;SDS011;11773;52.570;13.052;2024-01-30T07:37:52;1.70;;;1.47;;
23206;SDS011;11773;52.570;13.052;2024-01-30T07:40:21;1.47;;;1.30;;
23206;SDS011;11773;52.570;13.052;2024-01-30T07:42:53;1.67;;;1.57;;
23206;SDS011;11773;52.570;13.052;2024-01-30T07:45:23;1.50;;;1.40;;
23206;SDS011;11773;52.570;13.052;2024-01-30T07:47:54;1.53;;;1.40;;
23206;SDS011;11773;52.570;13.052;2024-01-30T07:50:24;2.00;;;1.60;;
23206;SDS011;11773;52.570;13.052;2024-01-30T07:52:59;1.50;;;1.40;;
23206;SDS011;11773;52.570;13.052;2024-01-30T07:55:29;1.27;;;1.17;;
23206;SDS011;11773;52.570;13.052;2024-01-30T07:57:59;1.53;;;1.43;;
23206;SDS011;11773;52.570;13.052;2024-01-30T08:00:28;1.50;;;1.40;;
23206;SDS011;11773;52.570;13.052;2024-01-30T08:02:58;1.40;;;1.30;;
23206;SDS011;11773;52.570;13.052;2024-01-30T08:05:28;1.80;;;1.57;;
23206;SDS011;11773;52.570;13.052;2024-01-30T08:07:57;2.13;;;1.57;;
23206;SDS011;11773;52.570;13.052;2024-01-30T08:10:27;2.03;;;1.33;;
23206;SDS011;11773;52.570;13.052;2024-01-30T08:12:57;1.43;;;1.33;;
23206;SDS011;11773;52.570;13.052;2024-01-30T08:15:27;1.37;;;1.27;;
23206;SDS011;11773;52.570;13.052;2024-01-30T08:17:56;1.80;;;1.33;;
23206;SDS011;11773;52.570;13.052;2024-01-30T08:20:26;1.77;;;1.40;;
23206;SDS011;11773;52.570;13.052;2024-01-30T08:22:55;1.40;;;1.30;;
23206;SDS011;11773;52.570;13.052;2024-01-30T08:25:25;2.07;;;1.90;;
23206;SDS011;11773;52.570;13.052;2024-01-30T08:27:55;3.93;;;2.50;;
23206;SDS011;11773;52.570;13.052;2024-01-30T08:30:26;2.27;;;2.07;;
23206;SDS011;11773;52.570;13.052;2024-01-30T08:32:56;2.20;;;1.87;;
23206;SDS011;11773;52.570;13.052;2024-01-30T08:35:26;2.10;;;1.90;;
23206;SDS011;11773;52.570;13.052;2024-01-30T08:37:58;3.20;;;2.00;;
23206;SDS011;11773;52.570;13.052;2024-01-30T08:40:28;2.00;;;1.80;;
23206;SDS011;11773;52.570;13.052;2024-01-30T08:42:58;1.73;;;1.63;;
23206;SDS011;11773;52.570;13.052;2024-01-30T08:45:27;1.87;;;1.67;;
23206;SDS011;11773;52.570;13.052;2024-01-30T08:47:57;1.57;;;1.43;;
23206;SDS011;11773;52.570;13.052;2024-01-30T08:50:27;2.23;;;1.30;;
23206;SDS011;11773;52.570;13.052;2024-01-30T08:52:57;1.93;;;1.83;;
23206;SDS011;11773;52.570;13.052;2024-01-30T08:55:27;2.43;;;2.23;;
23206;SDS011;11773;52.570;13.052;2024-01-30T08:57:57;1.80;;;1.40;;
23206;SDS011;11773;52.570;13.052;2024-01-30T09:00:27;3.13;;;1.27;;
23206;SDS011;11773;52.570;13.052;2024-01-30T09:02:57;1.67;;;1.30;;
23206;SDS011;11773;52.570;13.052;2024-01-30T09:05:27;1.43;;;1.33;;
23206;SDS011;11773;52.570;13.052;2024-01-30T09:07:56;1.30;;;1.20;;
23206;SDS011;11773;52.570;13.052;2024-01-30T09:10:26;1.77;;;1.67;;
23206;SDS011;11773;52.570;13.052;2024-01-30T09:12:56;1.77;;;1.60;;
23206;SDS011;11773;52.570;13.052;2024-01-30T09:15:25;1.17;;;1.10;;
23206;SDS011;11773;52.570;13.052;2024-01-30T09:17:55;1.10;;;1.03;;
23206;SDS011;11773;52.570;13.052;2024-01-30T09:20:24;1.50;;;1.40;;
23206;SDS011;11773;52.570;13.052;2024-01-30T09:22:56;1.53;;;1.43;;
23206;SDS011;11773;52.570;13.052;2024-01-30T09:25:25;1.73;;;1.63;;
23206;SDS011;11773;52.570;13.052;2024-01-30T09:27:55;1.87;;;1.77;;
23206;SDS011;11773;52.570;13.052;2024-01-30T09:30:25;1.33;;;1.23;;
23206;SDS011;11773;52.570;13.052;2024-01-30T09:32:54;1.63;;;1.53;;
23206;SDS011;11773;52.570;13.052;2024-01-30T09:35:25;1.40;;;1.30;;
23206;SDS011;11773;52.570;13.052;2024-01-30T09:37:55;1.90;;;1.70;;
23206;SDS011;11773;52.570;13.052;2024-01-30T09:40:24;1.67;;;1.57;;
23206;SDS011;11773;52.570;13.052;2024-01-30T09:42:55;2.73;;;2.10;;
23206;SDS011;11773;52.570;13.052;2024-01-30T09:45:28;1.83;;;1.50;;
23206;SDS011;11773;52.570;13.052;2024-01-30T09:48:01;2.63;;;2.27;;
23206;SDS011;11773;52.570;13.052;2024-01-30T09:50:31;2.40;;;2.00;;
23206;SDS011;11773;52.570;13.052;2024-01-30T09:53:04;2.30;;;1.97;;
23206;SDS011;11773;52.570;13.052;2024-01-30T09:55:36;2.13;;;1.70;;
23206;SDS011;11773;52.570;13.052;2024-01-30T09:58:07;2.20;;;2.00;;
23206;SDS011;11773;52.570;13.052;2024-01-30T10:00:37;1.97;;;1.77;;
23206;SDS011;11773;52.570;13.052;2024-01-30T10:03:07;2.50;;;2.30;;
23206;SDS011;11773;52.570;13.052;2024-01-30T10:05:37;2.60;;;2.07;;
23206;SDS011;11773;52.570;13.052;2024-01-30T10:08:09;2.50;;;2.30;;
23206;SDS011;11773;52.570;13.052;2024-01-30T10:10:41;2.20;;;2.00;;
23206;SDS011;11773;52.570;13.052;2024-01-30T10:13:16;2.30;;;2.10;;
23206;SDS011;11773;52.570;13.052;2024-01-30T10:15:47;2.23;;;1.90;;
23206;SDS011;11773;52.570;13.052;2024-01-30T10:18:17;1.97;;;1.80;;
23206;SDS011;11773;52.570;13.052;2024-01-30T10:20:47;2.40;;;2.20;;
23206;SDS011;11773;52.570;13.052;2024-01-30T10:23:16;4.03;;;2.87;;
23206;SDS011;11773;52.570;13.052;2024-01-30T10:25:47;2.20;;;2.00;;
23206;SDS011;11773;52.570;13.052;2024-01-30T10:31:08;3.20;;;2.33;;
23206;SDS011;11773;52.570;13.052;2024-01-30T10:33:37;2.13;;;1.80;;
23206;SDS011;11773;52.570;13.052;2024-01-30T10:36:07;2.37;;;2.13;;
23206;SDS011;11773;52.570;13.052;2024-01-30T10:38:37;1.97;;;1.77;;
23206;SDS011;11773;52.570;13.052;2024-01-30T10:41:12;2.00;;;1.80;;
23206;SDS011;11773;52.570;13.052;2024-01-30T10:43:46;2.70;;;2.30;;
23206;SDS011;11773;52.570;13.052;2024-01-30T10:46:19;1.90;;;1.80;;
23206;SDS011;11773;52.570;13.052;2024-01-30T10:48:59;2.40;;;2.20;;
23206;SDS011;11773;52.570;13.052;2024-01-30T10:51:29;2.30;;;2.10;;
23206;SDS011;11773;52.570;13.052;2024-01-30T10:54:02;2.30;;;1.80;;
23206;SDS011;11773;52.570;13.052;2024-01-30T10:56:34;2.10;;;1.90;;
23206;SDS011;11773;52.570;13.052;2024-01-30T10:59:05;2.80;;;2.03;;
23206;SDS011;11773;52.570;13.052;2024-01-30T11:01:37;2.93;;;2.53;;
23206;SDS011;11773;52.570;13.052;2024-01-30T11:04:08;2.60;;;2.40;;
23206;SDS011;11773;52.570;13.052;2024-01-30T11:06:41;2.50;;;2.30;;
23206;SDS011;11773;52.570;13.052;2024-01-30T11:09:11;2.30;;;2.10;;
23206;SDS011;11773;52.570;13.052;2024-01-30T11:11:56;2.23;;;2.07;;
23206;SDS011;11773;52.570;13.052;2024-01-30T11:14:30;2.10;;;1.90;;
23206;SDS011;11773;52.570;13.052;2024-01-30T11:17:00;2.37;;;2.17;;
23206;SDS011;11773;52.570;13.052;2024-01-30T11:19:32;2.20;;;1.73;;
23206;SDS011;11773;52.570;13.052;2024-01-30T11:22:03;1.67;;;1.57;;
23206;SDS011;11773;52.570;13.052;2024-01-30T11:24:40;2.17;;;1.97;;
23206;SDS011;11773;52.570;13.052;2024-01-30T11:27:10;2.70;;;2.30;;
23206;SDS011;11773;52.570;13.052;2024-01-30T11:29:39;2.73;;;2.33;;
23206;SDS011;11773;52.570;13.052;2024-01-30T11:32:09;2.07;;;1.80;;
23206;SDS011;11773;52.570;13.052;2024-01-30T11:34:40;1.87;;;1.60;;
23206;SDS011;11773;52.570;13.052;2024-01-30T11:37:10;1.63;;;1.50;;
23206;SDS011;11773;52.570;13.052;2024-01-30T11:39:43;1.53;;;1.43;;
23206;SDS011;11773;52.570;13.052;2024-01-30T11:42:15;1.97;;;1.77;;
23206;SDS011;11773;52.570;13.052;2024-01-30T11:44:47;1.47;;;1.37;;
23206;SDS011;11773;52.570;13.052;2024-01-30T11:47:17;1.60;;;1.40;;
23206;SDS011;11773;52.570;13.052;2024-01-30T11:49:46;1.73;;;1.63;;
23206;SDS011;11773;52.570;13.052;2024-01-30T11:52:16;1.70;;;1.60;;
23206;SDS011;11773;52.570;13.052;2024-01-30T11:54:46;2.37;;;2.17;;
23206;SDS011;11773;52.570;13.052;2024-01-30T11:57:15;2.33;;;2.13;;
23206;SDS011;11773;52.570;13.052;2024-01-30T11:59:45;2.37;;;2.17;;
23206;SDS011;11773;52.570;13.052;2024-01-30T12:02:15;3.07;;;1.93;;
23206;SDS011;11773;52.570;13.052;2024-01-30T12:04:45;2.20;;;2.00;;
23206;SDS011;11773;52.570;13.052;2024-01-30T12:07:15;2.70;;;2.20;;
23206;SDS011;11773;52.570;13.052;2024-01-30T12:09:52;3.20;;;2.90;;
23206;SDS011;11773;52.570;13.052;2024-01-30T12:12:23;2.97;;;2.20;;
23206;SDS011;11773;52.570;13.052;2024-01-30T12:14:55;2.20;;;2.00;;
23206;SDS011;11773;52.570;13.052;2024-01-30T12:17:29;2.73;;;2.53;;
23206;SDS011;11773;52.570;13.052;2024-01-30T12:20:09;2.92;;;2.20;;
23206;SDS011;11773;52.570;13.052;2024-01-30T12:22:42;2.10;;;1.90;;
23206;SDS011;11773;52.570;13.052;2024-01-30T12:25:15;1.70;;;1.60;;
23206;SDS011;11773;52.570;13.052;2024-01-30T12:27:47;3.07;;;2.07;;
23206;SDS011;11773;52.570;13.052;2024-01-30T12:30:20;1.90;;;1.70;;
23206;SDS011;11773;52.570;13.052;2024-01-30T12:32:50;2.70;;;2.20;;
23206;SDS011;11773;52.570;13.052;2024-01-30T12:35:20;2.20;;;1.90;;
23206;SDS011;11773;52.570;13.052;2024-01-30T12:37:51;2.27;;;2.03;;
23206;SDS011;11773;52.570;13.052;2024-01-30T12:40:20;2.33;;;2.13;;
23206;SDS011;11773;52.570;13.052;2024-01-30T12:42:51;2.10;;;1.90;;
23206;SDS011;11773;52.570;13.052;2024-01-30T12:45:21;3.63;;;2.30;;
23206;SDS011;11773;52.570;13.052;2024-01-30T12:47:50;2.07;;;1.73;;
23206;SDS011;11773;52.570;13.052;2024-01-30T12:50:20;2.30;;;2.10;;
23206;SDS011;11773;52.570;13.052;2024-01-30T12:52:50;2.37;;;1.87;;
23206;SDS011;11773;52.570;13.052;2024-01-30T12:55:19;2.47;;;2.03;;
23206;SDS011;11773;52.570;13.052;2024-01-30T12:57:49;2.07;;;1.87;;
23206;SDS011;11773;52.570;13.052;2024-01-30T13:00:19;2.12;;;1.92;;
23206;SDS011;11773;52.570;13.052;2024-01-30T13:02:49;1.90;;;1.70;;
23206;SDS011;11773;52.570;13.052;2024-01-30T13:05:19;2.07;;;1.93;;
23206;SDS011;11773;52.570;13.052;2024-01-30T13:07:50;1.73;;;1.63;;
23206;SDS011;11773;52.570;13.052;2024-01-30T13:10:20;2.07;;;1.90;;
23206;SDS011;11773;52.570;13.052;2024-01-30T13:12:50;1.90;;;1.80;;
23206;SDS011;11773;52.570;13.052;2024-01-30T13:15:20;1.60;;;1.50;;
23206;SDS011;11773;52.570;13.052;2024-01-30T13:17:49;1.20;;;1.10;;
23206;SDS011;11773;52.570;13.052;2024-01-30T13:20:21;1.77;;;1.67;;
23206;SDS011;11773;52.570;13.052;2024-01-30T13:22:51;2.83;;;2.43;;
23206;SDS011;11773;52.570;13.052;2024-01-30T13:25:21;2.20;;;2.00;;
23206;SDS011;11773;52.570;13.052;2024-01-30T13:27:50;2.73;;;2.33;;
23206;SDS011;11773;52.570;13.052;2024-01-30T13:30:20;2.40;;;2.20;;
23206;SDS011;11773;52.570;13.052;2024-01-30T13:32:50;2.63;;;2.40;;
23206;SDS011;11773;52.570;13.052;2024-01-30T13:35:19;2.33;;;2.13;;
23206;SDS011;11773;52.570;13.052;2024-01-30T13:37:49;2.83;;;2.00;;
23206;SDS011;11773;52.570;13.052;2024-01-30T13:40:19;2.20;;;2.00;;
23206;SDS011;11773;52.570;13.052;2024-01-30T13:42:49;2.37;;;2.00;;
23206;SDS011;11773;52.570;13.052;2024-01-30T13:45:19;1.97;;;1.70;;
23206;SDS011;11773;52.570;13.052;2024-01-30T13:47:50;1.97;;;1.77;;
23206;SDS011;11773;52.570;13.052;2024-01-30T13:50:20;2.33;;;2.13;;
23206;SDS011;11773;52.570;13.052;2024-01-30T13:52:50;2.17;;;1.93;;
23206;SDS011;11773;52.570;13.052;2024-01-30T13:55:20;2.07;;;1.50;;
23206;SDS011;11773;52.570;13.052;2024-01-30T13:57:51;1.67;;;1.50;;
23206;SDS011;11773;52.570;13.052;2024-01-30T14:00:20;1.17;;;1.10;;
23206;SDS011;11773;52.570;13.052;2024-01-30T14:02:52;1.40;;;1.30;;
23206;SDS011;11773;52.570;13.052;2024-01-30T14:05:23;1.67;;;1.57;;
23206;SDS011;11773;52.570;13.052;2024-01-30T14:07:54;1.33;;;1.23;;
23206;SDS011;11773;52.570;13.052;2024-01-30T14:10:26;1.40;;;1.30;;
23206;SDS011;11773;52.570;13.052;2024-01-30T14:12:55;1.70;;;1.60;;
23206;SDS011;11773;52.570;13.052;2024-01-30T14:15:25;1.50;;;1.40;;
23206;SDS011;11773;52.570;13.052;2024-01-30T14:17:56;1.23;;;1.13;;
23206;SDS011;11773;52.570;13.052;2024-01-30T14:20:26;1.23;;;1.10;;
23206;SDS011;11773;52.570;13.052;2024-01-30T14:22:57;1.40;;;1.30;;
23206;SDS011;11773;52.570;13.052;2024-01-30T14:25:27;1.50;;;1.20;;
23206;SDS011;11773;52.570;13.052;2024-01-30T14:27:57;1.70;;;1.50;;
23206;SDS011;11773;52.570;13.052;2024-01-30T14:30:26;1.90;;;1.67;;
23206;SDS011;11773;52.570;13.052;2024-01-30T14:32:56;1.97;;;1.73;;
23206;SDS011;11773;52.570;13.052;2024-01-30T14:35:26;2.20;;;2.00;;
23206;SDS011;11773;52.570;13.052;2024-01-30T14:37:55;2.20;;;1.70;;
23206;SDS011;11773;52.570;13.052;2024-01-30T14:40:25;3.00;;;2.30;;
23206;SDS011;11773;52.570;13.052;2024-01-30T14:42:55;2.20;;;2.00;;
23206;SDS011;11773;52.570;13.052;2024-01-30T14:45:26;2.17;;;1.97;;
23206;SDS011;11773;52.570;13.052;2024-01-30T14:47:55;2.37;;;2.07;;
23206;SDS011;11773;52.570;13.052;2024-01-30T14:50:27;2.30;;;2.10;;
23206;SDS011;11773;52.570;13.052;2024-01-30T14:52:56;2.63;;;1.80;;
23206;SDS011;11773;52.570;13.052;2024-01-30T14:55:26;1.87;;;1.50;;
23206;SDS011;11773;52.570;13.052;2024-01-30T14:57:55;1.67;;;1.50;;
23206;SDS011;11773;52.570;13.052;2024-01-30T15:00:26;2.03;;;1.83;;